createdAt,value
2023-04-11T00:00:57.992Z,99907.47
2023-04-11T00:03:28.284Z,99904.84
2023-04-11T00:05:55.459Z,99914.63
2023-04-11T00:08:23.638Z,99913.78
2023-04-11T00:10:50.349Z,99916.47
2023-04-11T00:13:19.607Z,99905.94
2023-04-11T00:15:46.281Z,99899.78
2023-04-11T00:18:12.808Z,99897.19
2023-04-11T00:20:39.287Z,99881.31
2023-04-11T00:23:06.016Z,99876.00
2023-04-11T00:25:33.102Z,99861.88
2023-04-11T00:27:59.724Z,99867.19
2023-04-11T00:30:27.157Z,99863.66
2023-04-11T00:32:54.108Z,99857.50
2023-04-11T00:35:20.763Z,99853.13
2023-04-11T00:37:54.167Z,99839.84
2023-04-11T00:40:20.846Z,99842.50
2023-04-11T00:42:50.080Z,99839.88
2023-04-11T00:45:16.904Z,99816.03
2023-04-11T00:47:43.899Z,99793.06
2023-04-11T00:50:14.307Z,99756.88
2023-04-11T00:52:41.629Z,99733.06
2023-04-11T00:55:11.038Z,99719.84
2023-04-11T00:57:38.166Z,99708.38
2023-04-11T01:00:05.325Z,99708.38
2023-04-11T01:02:33.383Z,99679.25
2023-04-11T01:05:00.882Z,99665.16
2023-04-11T01:07:29.407Z,99680.19
2023-04-11T01:09:56.213Z,99693.44
2023-04-11T01:12:22.945Z,99723.47
2023-04-11T01:14:49.520Z,99745.53
2023-04-11T01:17:16.176Z,99772.03
2023-04-11T01:19:43.360Z,99784.38
2023-04-11T01:22:11.405Z,99795.88
2023-04-11T01:24:37.997Z,99809.13
2023-04-11T01:27:06.228Z,99826.78
2023-04-11T01:29:35.103Z,99825.00
2023-04-11T01:32:01.852Z,99828.53
2023-04-11T01:34:29.879Z,99833.84
2023-04-11T01:36:57.769Z,99828.56
2023-04-11T01:39:24.590Z,99816.22
2023-04-11T01:41:51.865Z,99810.91
2023-04-11T01:44:21.010Z,99816.22
2023-04-11T01:46:47.890Z,99817.97
2023-04-11T01:49:15.796Z,99815.31
2023-04-11T01:51:43.458Z,99805.63
2023-04-11T01:54:10.252Z,99802.97
2023-04-11T01:56:39.394Z,99805.63
2023-04-11T01:59:06.741Z,99808.25
2023-04-11T02:01:34.504Z,99798.56
2023-04-11T02:04:01.676Z,99802.09
2023-04-11T02:06:28.331Z,99805.63
2023-04-11T02:08:55.136Z,99797.69
2023-04-11T02:11:22.215Z,99790.63
2023-04-11T02:13:49.194Z,99786.25
2023-04-11T02:16:17.994Z,99779.16
2023-04-11T02:18:48.937Z,99782.72
2023-04-11T02:21:15.501Z,99771.22
2023-04-11T02:23:42.137Z,99771.22
2023-04-11T02:26:08.838Z,99776.53
2023-04-11T02:28:36.809Z,99774.75
2023-04-11T02:31:03.892Z,99776.56
2023-04-11T02:33:30.730Z,99777.41
2023-04-11T02:35:58.326Z,99773.88
2023-04-11T02:38:24.891Z,99763.31
2023-04-11T02:40:51.395Z,99748.34
2023-04-11T02:43:17.917Z,99732.44
2023-04-11T02:45:44.427Z,99719.25
2023-04-11T02:48:14.001Z,99706.88
2023-04-11T02:50:44.190Z,99714.84
2023-04-11T02:53:12.485Z,99724.53
2023-04-11T02:55:46.007Z,99708.69
2023-04-11T02:58:17.957Z,99714.84
2023-04-11T03:00:46.292Z,99728.09
2023-04-11T03:03:13.720Z,99723.66
2023-04-11T03:05:43.797Z,99718.38
2023-04-11T03:08:11.886Z,99725.44
2023-04-11T03:10:44.207Z,99723.69
2023-04-11T03:13:11.490Z,99717.53
2023-04-11T03:15:38.086Z,99706.94
2023-04-11T03:18:07.803Z,99703.44
2023-04-11T03:20:37.332Z,99703.41
2023-04-11T03:23:04.010Z,99691.97
2023-04-11T03:25:31.304Z,99692.81
2023-04-11T03:27:58.559Z,99691.03
2023-04-11T03:30:25.601Z,99702.47
2023-04-11T03:32:53.232Z,99705.09
2023-04-11T03:35:20.792Z,99697.16
2023-04-11T03:37:49.434Z,99696.28
2023-04-11T03:40:18.453Z,99706.84
2023-04-11T03:42:51.027Z,99716.50
2023-04-11T03:45:21.731Z,99723.53
2023-04-11T03:47:50.685Z,99724.44
2023-04-11T03:50:22.302Z,99724.41
2023-04-11T03:52:54.991Z,99731.44
2023-04-11T03:55:21.856Z,99734.06
2023-04-11T03:57:48.465Z,99736.75
2023-04-11T04:00:19.970Z,99731.47
2023-04-11T04:02:58.483Z,99728.84
2023-04-11T04:05:25.917Z,99733.25
2023-04-11T04:07:54.065Z,99728.00
2023-04-11T04:10:34.041Z,99718.34
2023-04-11T04:13:02.773Z,99727.16
2023-04-11T04:15:36.440Z,99723.59
2023-04-11T04:18:04.263Z,99727.13
2023-04-11T04:20:51.262Z,99723.63
2023-04-11T04:23:20.098Z,99719.22
2023-04-11T04:26:13.156Z,99734.19
2023-04-11T04:28:46.283Z,99723.69
2023-04-11T04:31:22.344Z,99730.72
2023-04-11T04:33:50.611Z,99726.31
2023-04-11T04:36:22.035Z,99733.34
2023-04-11T04:38:50.387Z,99736.00
2023-04-11T04:41:24.353Z,99739.53
2023-04-11T04:43:58.612Z,99779.16
2023-04-11T04:46:43.596Z,99772.91
2023-04-11T04:49:11.113Z,99775.50
2023-04-11T04:51:38.541Z,99778.03
2023-04-11T04:54:05.517Z,99779.72
2023-04-11T04:56:32.170Z,99783.09
2023-04-11T04:58:59.813Z,99787.41
2023-04-11T05:01:28.258Z,99782.06
2023-04-11T05:03:59.295Z,99787.28
2023-04-11T05:06:40.369Z,99774.94
2023-04-11T05:09:07.095Z,99773.13
2023-04-11T05:11:35.343Z,99770.44
2023-04-11T05:14:03.468Z,99773.00
2023-04-11T05:16:30.093Z,99792.25
2023-04-11T05:18:58.692Z,99809.78
2023-04-11T05:21:26.801Z,99818.38
2023-04-11T05:23:53.639Z,99824.50
2023-04-11T05:26:20.927Z,99826.00
2023-04-11T05:28:47.879Z,99820.75
2023-04-11T05:31:18.266Z,99827.75
2023-04-11T05:33:45.713Z,99806.69
2023-04-11T05:36:15.332Z,99814.69
2023-04-11T05:38:43.411Z,99815.53
2023-04-11T05:41:11.348Z,99817.19
2023-04-11T05:43:38.426Z,99805.84
2023-04-11T05:46:06.215Z,99810.25
2023-04-11T05:48:32.775Z,99796.25
2023-04-11T05:50:59.817Z,99795.47
2023-04-11T05:53:26.410Z,99815.84
2023-04-11T05:55:53.077Z,99803.78
2023-04-11T05:58:19.681Z,99804.84
2023-04-11T06:00:46.304Z,99804.97
2023-04-11T06:03:13.246Z,99801.59
2023-04-11T06:05:40.011Z,99805.16
2023-04-11T06:08:07.556Z,99809.72
2023-04-11T06:10:35.341Z,99813.31
2023-04-11T06:13:02.024Z,99801.91
2023-04-11T06:15:29.479Z,99795.78
2023-04-11T06:17:56.113Z,99790.53
2023-04-11T06:20:23.322Z,99787.88
2023-04-11T06:22:52.513Z,99788.75
2023-04-11T06:25:20.621Z,99788.66
2023-04-11T06:27:47.915Z,99788.63
2023-04-11T06:30:14.898Z,99796.53
2023-04-11T06:32:41.513Z,99794.91
2023-04-11T06:35:08.886Z,99795.88
2023-04-11T06:37:35.621Z,99802.22
2023-04-11T06:40:02.461Z,99804.09
2023-04-11T06:42:28.958Z,99811.22
2023-04-11T06:44:57.611Z,99827.16
2023-04-11T06:47:24.262Z,99833.44
2023-04-11T06:49:50.815Z,99847.44
2023-04-11T06:52:17.395Z,99846.53
2023-04-11T06:54:43.900Z,99845.50
2023-04-11T06:57:10.592Z,99840.00
2023-04-11T06:59:37.425Z,99825.78
2023-04-11T07:02:04.120Z,99817.78
2023-04-11T07:04:30.976Z,99817.78
2023-04-11T07:06:57.654Z,99817.78
2023-04-11T07:09:24.107Z,99813.34
2023-04-11T07:11:50.826Z,99836.03
2023-04-11T07:14:17.362Z,99842.03
2023-04-11T07:16:43.863Z,99848.16
2023-04-11T07:19:10.416Z,99871.00
2023-04-11T07:21:38.258Z,99874.44
2023-04-11T07:24:08.395Z,99884.72
2023-04-11T07:26:38.458Z,99884.47
2023-04-11T07:29:05.502Z,99887.81
2023-04-11T07:31:33.728Z,99888.63
2023-04-11T07:34:00.329Z,99893.03
2023-04-11T07:36:27.376Z,99884.16
2023-04-11T07:38:54.038Z,99873.56
2023-04-11T07:41:20.668Z,99869.94
2023-04-11T07:43:47.146Z,99883.06
2023-04-11T07:46:15.073Z,99884.88
2023-04-11T07:48:42.332Z,99883.97
2023-04-11T07:51:09.141Z,99890.97
2023-04-11T07:53:36.660Z,99892.75
2023-04-11T07:56:04.897Z,99896.31
2023-04-11T07:58:32.030Z,99899.06
2023-04-11T08:00:58.779Z,99899.22
2023-04-11T08:03:25.422Z,99901.91
2023-04-11T08:05:53.159Z,99902.00
2023-04-11T08:08:19.968Z,99901.22
2023-04-11T08:10:46.602Z,99910.97
2023-04-11T08:13:13.124Z,99907.53
2023-04-11T08:15:39.994Z,99906.84
2023-04-11T08:18:07.312Z,99914.06
2023-04-11T08:20:33.941Z,99913.38
2023-04-11T08:23:05.759Z,99925.84
2023-04-11T08:25:34.078Z,99921.50
2023-04-11T08:28:01.282Z,99926.81
2023-04-11T08:30:27.824Z,99920.75
2023-04-11T08:32:54.465Z,99922.66
2023-04-11T08:35:21.063Z,99916.66
2023-04-11T08:37:49.134Z,99910.56
2023-04-11T08:40:16.541Z,99919.47
2023-04-11T08:42:43.248Z,99919.53
2023-04-11T08:45:10.384Z,99921.41
2023-04-11T08:47:37.384Z,99925.88
2023-04-11T08:50:05.600Z,99931.22
2023-04-11T08:52:33.188Z,99920.66
2023-04-11T08:55:00.106Z,99929.56
2023-04-11T08:57:33.474Z,99919.97
2023-04-11T09:00:15.296Z,99921.72
2023-04-11T09:02:56.401Z,99909.53
2023-04-11T09:05:31.143Z,99916.63
2023-04-11T09:07:59.354Z,99913.16
2023-04-11T09:10:29.400Z,99912.28
2023-04-11T09:12:56.787Z,99907.03
2023-04-11T09:15:25.672Z,99916.75
2023-04-11T09:17:52.804Z,99910.59
2023-04-11T09:20:31.884Z,99913.25
2023-04-11T09:23:01.606Z,99908.84
2023-04-11T09:25:28.270Z,99907.94
2023-04-11T09:28:10.894Z,99900.00
2023-04-11T09:30:37.725Z,99903.56
2023-04-11T09:33:25.719Z,99900.91
2023-04-11T09:35:54.360Z,99897.38
2023-04-11T09:38:32.748Z,99894.72
2023-04-11T09:41:04.243Z,99917.63
2023-04-11T09:43:51.386Z,99898.22
2023-04-11T09:46:20.763Z,99884.97
2023-04-11T09:48:54.563Z,99900.91
2023-04-11T09:51:35.138Z,99904.41
2023-04-11T09:54:04.316Z,99916.78
2023-04-11T09:56:31.708Z,99913.25
2023-04-11T09:59:00.165Z,99902.69
2023-04-11T10:01:27.455Z,99909.72
2023-04-11T10:03:56.004Z,99907.09
2023-04-11T10:06:38.964Z,99897.34
2023-04-11T10:09:08.155Z,99894.72
2023-04-11T10:11:36.069Z,99920.28
2023-04-11T10:14:02.766Z,99928.19
2023-04-11T10:16:32.501Z,99917.50
2023-04-11T10:19:00.269Z,99913.06
2023-04-11T10:21:32.946Z,99923.66
2023-04-11T10:24:11.579Z,99911.34
2023-04-11T10:26:51.841Z,99913.06
2023-04-11T10:29:34.059Z,99912.09
2023-04-11T10:32:10.767Z,99917.47
2023-04-11T10:34:41.975Z,99910.47
2023-04-11T10:37:09.999Z,99912.09
2023-04-11T10:39:48.458Z,99951.59
2023-04-11T10:42:31.698Z,99957.56
2023-04-11T10:45:19.784Z,99965.28
2023-04-11T10:47:58.691Z,99981.09
2023-04-11T10:50:25.240Z,99987.91
2023-04-11T10:53:00.013Z,99986.88
2023-04-11T10:55:28.006Z,99976.22
2023-04-11T10:58:16.357Z,99988.53
2023-04-11T11:00:52.631Z,99963.03
2023-04-11T11:03:22.978Z,99955.88
2023-04-11T11:06:01.388Z,99958.56
2023-04-11T11:08:33.615Z,99953.38
2023-04-11T11:11:01.822Z,99955.47
2023-04-11T11:13:55.936Z,99961.88
2023-04-11T11:16:25.635Z,99965.56
2023-04-11T11:18:56.669Z,99967.47
2023-04-11T11:21:27.801Z,99980.03
2023-04-11T11:24:04.652Z,99986.31
2023-04-11T11:26:42.629Z,99966.97
2023-04-11T11:29:10.570Z,99969.63
2023-04-11T11:31:47.643Z,99961.72
2023-04-11T11:34:27.172Z,99975.84
2023-04-11T11:36:53.978Z,99967.91
2023-04-11T11:39:21.967Z,99970.59
2023-04-11T11:41:50.371Z,99980.34
2023-04-11T11:44:26.694Z,99968.84
2023-04-11T11:47:08.974Z,99978.53
2023-04-11T11:49:49.869Z,99975.03
2023-04-11T11:52:35.176Z,99985.63
2023-04-11T11:55:06.138Z,99993.56
2023-04-11T11:57:34.169Z,99985.56
2023-04-11T12:00:02.159Z,99982.84
2023-04-11T12:02:35.358Z,99991.66
2023-04-11T12:05:07.768Z,100007.59
2023-04-11T12:07:37.258Z,100043.88
2023-04-11T12:10:11.500Z,100004.97
2023-04-11T12:12:40.892Z,100004.06
2023-04-11T12:15:21.059Z,100003.19
2023-04-11T12:17:49.280Z,100004.09
2023-04-11T12:20:16.339Z,100010.25
2023-04-11T12:22:43.089Z,100012.84
2023-04-11T12:25:14.374Z,100021.66
2023-04-11T12:27:42.756Z,100014.53
2023-04-11T12:30:10.955Z,100017.06
2023-04-11T12:32:37.859Z,100019.66
2023-04-11T12:35:06.032Z,100020.56
2023-04-11T12:37:33.738Z,100012.53
2023-04-11T12:40:00.937Z,100005.31
2023-04-11T12:42:27.695Z,100015.09
2023-04-11T12:44:54.636Z,100024.81
2023-04-11T12:47:21.457Z,100019.59
2023-04-11T12:49:49.455Z,100017.91
2023-04-11T12:52:17.263Z,100020.63
2023-04-11T12:54:43.886Z,100033.06
2023-04-11T12:57:12.402Z,100031.34
2023-04-11T12:59:39.470Z,100033.94
2023-04-11T13:02:06.320Z,100031.19
2023-04-11T13:04:33.095Z,100037.31
2023-04-11T13:07:03.444Z,100029.34
2023-04-11T13:09:31.586Z,100033.78
2023-04-11T13:11:59.256Z,100038.16
2023-04-11T13:14:25.779Z,100036.44
2023-04-11T13:16:52.397Z,100029.41
2023-04-11T13:19:19.141Z,100035.66
2023-04-11T13:21:45.690Z,100043.66
2023-04-11T13:24:12.481Z,100040.19
2023-04-11T13:26:39.762Z,100034.88
2023-04-11T13:29:07.366Z,100044.69
2023-04-11T13:31:35.516Z,100039.44
2023-04-11T13:34:02.757Z,100049.22
2023-04-11T13:36:29.757Z,100054.50
2023-04-11T13:38:57.388Z,100075.69
2023-04-11T13:41:24.994Z,100096.84
2023-04-11T13:43:52.654Z,100122.41
2023-04-11T13:46:19.863Z,100113.50
2023-04-11T13:48:46.396Z,100123.94
2023-04-11T13:51:13.634Z,100132.75
2023-04-11T13:53:40.163Z,100137.88
2023-04-11T13:56:07.920Z,100161.41
2023-04-11T13:58:35.139Z,100155.97
2023-04-11T14:01:01.967Z,100159.56
2023-04-11T14:03:33.359Z,100155.13
2023-04-11T14:06:00.883Z,100159.38
2023-04-11T14:08:28.729Z,100167.16
2023-04-11T14:10:55.483Z,100176.66
2023-04-11T14:13:22.287Z,100179.19
2023-04-11T14:15:54.836Z,100170.34
2023-04-11T14:18:31.960Z,100176.53
2023-04-11T14:21:01.135Z,100178.22
2023-04-11T14:23:28.834Z,100193.13
2023-04-11T14:25:55.605Z,100191.44
2023-04-11T14:28:22.355Z,100184.66
2023-04-11T14:30:49.373Z,100182.16
2023-04-11T14:33:16.341Z,100124.53
2023-04-11T14:35:46.825Z,100124.81
2023-04-11T14:38:15.335Z,100120.81
2023-04-11T14:40:42.453Z,100123.84
2023-04-11T14:43:09.113Z,100125.97
2023-04-11T14:45:36.373Z,100139.50
2023-04-11T14:48:03.146Z,100141.44
2023-04-11T14:50:29.900Z,100143.28
2023-04-11T14:52:56.404Z,100147.78
2023-04-11T14:55:24.205Z,100158.38
2023-04-11T14:57:55.843Z,100163.66
2023-04-11T15:00:24.550Z,100162.75
2023-04-11T15:02:53.772Z,100177.72
2023-04-11T15:05:22.610Z,100172.44
2023-04-11T15:07:52.496Z,100168.91
2023-04-11T15:10:21.389Z,100168.72
2023-04-11T15:12:48.462Z,100197.66
2023-04-11T15:15:16.045Z,100192.03
2023-04-11T15:17:47.740Z,100237.28
2023-04-11T15:20:15.066Z,100247.16
2023-04-11T15:22:45.936Z,100240.38
2023-04-11T15:25:14.340Z,100232.41
2023-04-11T15:27:41.871Z,100226.28
2023-04-11T15:30:09.901Z,100225.38
2023-04-11T15:32:41.687Z,100229.78
2023-04-11T15:35:09.229Z,100230.81
2023-04-11T15:37:36.015Z,100230.28
2023-04-11T15:40:06.231Z,100220.47
2023-04-11T15:42:35.299Z,100208.00
2023-04-11T15:45:02.444Z,100206.69
2023-04-11T15:47:29.242Z,100202.66
2023-04-11T15:49:57.288Z,100202.81
2023-04-11T15:52:23.958Z,100203.78
2023-04-11T15:54:50.585Z,100194.25
2023-04-11T15:57:18.413Z,100195.31
2023-04-11T15:59:45.680Z,100204.34
2023-04-11T16:02:12.491Z,100206.97
2023-04-11T16:04:39.779Z,100204.72
2023-04-11T16:07:06.848Z,100208.19
2023-04-11T16:09:34.658Z,100213.25
2023-04-11T16:12:01.796Z,100217.84
2023-04-11T16:14:29.257Z,100217.03
2023-04-11T16:16:57.472Z,100215.94
2023-04-11T16:19:24.124Z,100218.22
2023-04-11T16:21:51.258Z,100213.72
2023-04-11T16:24:18.908Z,100209.13
2023-04-11T16:26:45.684Z,100214.63
2023-04-11T16:29:12.341Z,100213.84
2023-04-11T16:31:39.009Z,100221.53
2023-04-11T16:34:05.632Z,100209.50
2023-04-11T16:36:34.580Z,100207.03
2023-04-11T16:39:01.846Z,100206.31
2023-04-11T16:41:28.524Z,100201.16
2023-04-11T16:43:55.405Z,100202.19
2023-04-11T16:46:22.156Z,100197.69
2023-04-11T16:48:49.225Z,100201.28
2023-04-11T16:51:18.310Z,100201.13
2023-04-11T16:53:45.976Z,100193.91
2023-04-11T16:56:13.450Z,100200.91
2023-04-11T16:58:39.930Z,100199.03
2023-04-11T17:01:06.925Z,100204.59
2023-04-11T17:03:33.708Z,100201.75
2023-04-11T17:06:00.792Z,100212.09
2023-04-11T17:08:27.498Z,100208.38
2023-04-11T17:11:04.028Z,100211.34
2023-04-11T17:13:30.656Z,100215.66
2023-04-11T17:15:57.196Z,100216.16
2023-04-11T17:18:23.681Z,100213.13
2023-04-11T17:20:50.157Z,100209.91
2023-04-11T17:23:16.662Z,100209.31
2023-04-11T17:25:43.435Z,100221.91
2023-04-11T17:28:11.001Z,100214.13
2023-04-11T17:30:38.576Z,100220.44
2023-04-11T17:33:05.103Z,100218.78
2023-04-11T17:35:33.139Z,100216.19
2023-04-11T17:38:00.696Z,100219.75
2023-04-11T17:40:27.838Z,100216.19
2023-04-11T17:42:54.701Z,100224.16
2023-04-11T17:45:22.337Z,100220.59
2023-04-11T17:47:49.184Z,100223.19
2023-04-11T17:50:16.875Z,100224.91
2023-04-11T17:52:45.028Z,100221.28
2023-04-11T17:55:14.326Z,100230.06
2023-04-11T17:57:42.262Z,100227.34
2023-04-11T18:00:23.166Z,100232.56
2023-04-11T18:02:57.543Z,100234.25
2023-04-11T18:05:28.246Z,100234.13
2023-04-11T18:07:57.311Z,100238.44
2023-04-11T18:10:25.901Z,100235.72
2023-04-11T18:12:54.793Z,100241.75
2023-04-11T18:15:22.256Z,100246.91
2023-04-11T18:17:48.944Z,100245.88
2023-04-11T18:20:17.030Z,100258.06
2023-04-11T18:22:52.611Z,100262.34
2023-04-11T18:25:20.159Z,100262.22
2023-04-11T18:27:48.202Z,100261.19
2023-04-11T18:30:16.367Z,100261.00
2023-04-11T18:32:48.864Z,100258.22
2023-04-11T18:35:18.276Z,100261.59
2023-04-11T18:37:45.179Z,100261.44
2023-04-11T18:40:13.761Z,100268.34
2023-04-11T18:42:42.055Z,100261.16
2023-04-11T18:45:11.231Z,100259.28
2023-04-11T18:47:38.830Z,100269.72
2023-04-11T18:50:06.891Z,100261.63
2023-04-11T18:52:33.616Z,100268.53
2023-04-11T18:55:00.917Z,100264.88
2023-04-11T18:57:33.413Z,100263.84
2023-04-11T19:00:10.711Z,100270.63
2023-04-11T19:02:38.644Z,100276.66
2023-04-11T19:05:07.980Z,100273.00
2023-04-11T19:07:34.754Z,100274.59
2023-04-11T19:10:01.257Z,100271.81
2023-04-11T19:12:27.934Z,100269.91
2023-04-11T19:14:54.465Z,100268.00
2023-04-11T19:17:22.540Z,100273.94
2023-04-11T19:19:49.037Z,100272.94
2023-04-11T19:22:15.926Z,100267.50
2023-04-11T19:24:42.678Z,100270.91
2023-04-11T19:27:10.755Z,100264.66
2023-04-11T19:29:37.285Z,100259.25
2023-04-11T19:32:07.042Z,100265.25
2023-04-11T19:34:35.179Z,100264.25
2023-04-11T19:37:01.746Z,100260.59
2023-04-11T19:39:34.732Z,100255.22
2023-04-11T19:42:02.510Z,100262.09
2023-04-11T19:44:30.466Z,100259.34
2023-04-11T19:46:57.019Z,100252.25
2023-04-11T19:49:23.557Z,100250.38
2023-04-11T19:51:51.149Z,100252.91
2023-04-11T19:54:17.912Z,100251.06
2023-04-11T19:56:45.442Z,100252.69
2023-04-11T19:59:13.592Z,100256.09
2023-04-11T20:01:40.597Z,100247.22
2023-04-11T20:04:07.338Z,100253.22
2023-04-11T20:06:34.868Z,100257.53
2023-04-11T20:09:01.938Z,100247.78
2023-04-11T20:11:29.576Z,100252.03
2023-04-11T20:13:56.640Z,100244.94
2023-04-11T20:16:25.392Z,100237.81
2023-04-11T20:18:53.488Z,100238.59
2023-04-11T20:21:20.171Z,100234.97
2023-04-11T20:23:46.665Z,100229.63
2023-04-11T20:26:14.178Z,100231.22
2023-04-11T20:28:40.900Z,100230.28
2023-04-11T20:31:07.397Z,100235.44
2023-04-11T20:33:33.903Z,100232.69
2023-04-11T20:36:02.658Z,100222.13
2023-04-11T20:38:31.228Z,100223.75
2023-04-11T20:40:57.925Z,100222.78
2023-04-11T20:43:26.482Z,100227.97
2023-04-11T20:45:53.245Z,100219.97
2023-04-11T20:48:19.937Z,100216.38
2023-04-11T20:50:47.630Z,100215.34
2023-04-11T20:53:14.610Z,100215.25
2023-04-11T20:55:42.269Z,100215.19
2023-04-11T20:58:11.028Z,100214.22
2023-04-11T21:00:39.870Z,100211.47
2023-04-11T21:03:07.803Z,100210.53
2023-04-11T21:05:34.880Z,100212.19
2023-04-11T21:08:03.873Z,100211.25
2023-04-11T21:10:30.320Z,100209.38
2023-04-11T21:12:56.861Z,100199.66
2023-04-11T21:15:23.576Z,100207.44
2023-04-11T21:17:50.714Z,100209.94
2023-04-11T21:20:18.122Z,100204.59
2023-04-11T21:22:46.526Z,100204.53
2023-04-11T21:25:13.337Z,100205.28
2023-04-11T21:27:41.625Z,100195.56
2023-04-11T21:30:09.579Z,100191.09
2023-04-11T21:32:36.136Z,100191.00
2023-04-11T21:35:06.267Z,100207.53
2023-04-11T21:37:33.087Z,100202.22
2023-04-11T21:39:59.639Z,100200.34
2023-04-11T21:42:26.223Z,100192.41
2023-04-11T21:44:52.809Z,100196.66
2023-04-11T21:47:19.357Z,100200.94
2023-04-11T21:49:49.151Z,100202.59
2023-04-11T21:52:15.969Z,100199.00
2023-04-11T21:54:43.580Z,100198.00
2023-04-11T21:57:10.808Z,100196.16
2023-04-11T21:59:38.123Z,100196.06
2023-04-11T22:02:04.954Z,100205.59
2023-04-11T22:07:01.284Z,100195.00
2023-04-11T22:09:27.979Z,100195.84
2023-04-11T22:11:55.599Z,100197.47
2023-04-11T22:14:22.215Z,100192.13
2023-04-11T22:16:53.109Z,100188.59
2023-04-11T22:19:19.646Z,100185.03
2023-04-11T22:21:56.218Z,100189.34
2023-04-11T22:24:30.169Z,100170.06
2023-04-11T22:26:58.390Z,100177.88
2023-04-11T22:29:30.451Z,100170.00
2023-04-11T22:31:58.218Z,100167.22
2023-04-11T22:34:25.585Z,100162.75
2023-04-11T22:36:52.271Z,100167.97
2023-04-11T22:39:18.957Z,100158.28
2023-04-11T22:41:50.545Z,100159.13
2023-04-11T22:44:18.047Z,100153.84
2023-04-11T22:47:13.514Z,100152.88
2023-04-11T22:49:42.993Z,100151.88
2023-04-11T22:52:15.103Z,100152.66
2023-04-11T22:54:43.101Z,100146.50
2023-04-11T22:57:10.443Z,100145.50
2023-04-11T22:59:37.205Z,100134.13
2023-04-11T23:02:04.040Z,100132.28
2023-04-11T23:04:32.219Z,100136.56
2023-04-11T23:06:59.442Z,100132.09
2023-04-11T23:09:26.516Z,100134.69
2023-04-11T23:11:53.495Z,100135.44
2023-04-11T23:14:21.163Z,100125.84
2023-04-11T23:16:48.314Z,100125.75
2023-04-11T23:19:15.046Z,100124.81
2023-04-11T23:21:41.552Z,100109.91
2023-04-11T23:24:11.636Z,100107.19
2023-04-11T23:26:38.313Z,100107.94
2023-04-11T23:29:04.857Z,100106.13
2023-04-11T23:31:32.640Z,100103.41
2023-04-11T23:33:59.338Z,100105.06
2023-04-11T23:36:27.450Z,100111.13
2023-04-11T23:38:54.134Z,100109.28
2023-04-11T23:41:20.776Z,100095.25
2023-04-11T23:43:47.584Z,100083.00
2023-04-11T23:46:14.517Z,100087.31
2023-04-11T23:48:41.179Z,100085.53
2023-04-11T23:51:08.238Z,100078.53
2023-04-11T23:53:35.064Z,100084.63
2023-04-11T23:56:01.721Z,100074.94
2023-04-11T23:58:28.297Z,100074.91
